createdAt,value
2019-04-23T00:01:07.799Z,100178.92
2019-04-23T00:03:34.348Z,100183.67
2019-04-23T00:06:15.138Z,100186.69
2019-04-23T00:08:41.986Z,100188.20
2019-04-23T00:13:45.450Z,100196.33
2019-04-23T00:16:21.551Z,100197.43
2019-04-23T00:18:43.748Z,100195.73
2019-04-23T00:29:15.005Z,100193.05
2019-04-23T00:31:31.403Z,100195.63
2019-04-23T00:34:24.981Z,100203.73
2019-04-23T00:36:52.527Z,100210.89
2019-04-23T00:39:08.771Z,100209.66
2019-04-23T00:44:06.360Z,100200.86
2019-04-23T00:46:44.754Z,100195.91
2019-04-23T00:51:43.061Z,100199.66
2019-04-23T00:54:22.700Z,100205.48
2019-04-23T00:59:21.269Z,100200.05
2019-04-23T01:01:55.765Z,100202.09
2019-04-23T01:04:18.586Z,100211.54
2019-04-23T01:06:54.557Z,100212.45
2019-04-23T01:09:27.152Z,100216.06
2019-04-23T01:12:00.906Z,100213.98
2019-04-23T01:14:29.285Z,100221.53
2019-04-23T01:16:55.083Z,100220.26
2019-04-23T01:19:52.472Z,100221.41
2019-04-23T01:21:57.925Z,100216.97
2019-04-23T01:24:52.840Z,100221.77
2019-04-23T01:30:19.759Z,100234.13
2019-04-23T01:32:55.203Z,100231.41
2019-04-23T01:35:41.326Z,100233.82
2019-04-23T01:38:11.470Z,100239.35
2019-04-23T01:40:32.335Z,100246.94
2019-04-23T01:43:00.010Z,100243.50
2019-04-23T01:47:59.619Z,100255.29
2019-04-23T01:50:47.324Z,100254.54
2019-04-23T01:55:42.453Z,100260.61
2019-04-23T01:58:25.805Z,100264.95
2019-04-23T02:00:41.040Z,100262.62
2019-04-23T02:03:15.502Z,100271.08
2019-04-23T02:05:48.246Z,100277.16
2019-04-23T02:08:12.652Z,100287.09
2019-04-23T02:11:02.824Z,100287.84
2019-04-23T02:13:27.993Z,100286.53
2019-04-23T02:15:53.401Z,100290.37
2019-04-23T02:18:20.646Z,100294.87
2019-04-23T02:21:02.378Z,100291.68
2019-04-23T02:23:46.105Z,100291.78
2019-04-23T02:26:23.385Z,100303.93
2019-04-23T02:29:06.770Z,100295.69
2019-04-23T02:34:18.919Z,100301.58
2019-04-23T02:36:34.956Z,100304.35
2019-04-23T02:41:27.592Z,100305.11
2019-04-23T02:44:06.997Z,100298.42
2019-04-23T02:46:17.550Z,100299.28
2019-04-23T02:49:12.449Z,100297.84
2019-04-23T02:56:37.457Z,100287.62
2019-04-23T02:59:11.142Z,100288.36
2019-04-23T03:01:29.823Z,100292.66
2019-04-23T03:04:19.685Z,100287.50
2019-04-23T03:06:43.359Z,100286.59
2019-04-23T03:09:18.829Z,100292.66
2019-04-23T03:11:40.931Z,100298.55
2019-04-23T03:14:18.621Z,100299.52
2019-04-23T03:19:58.546Z,100302.89
2019-04-23T03:25:10.040Z,100304.84
2019-04-23T03:27:37.390Z,100311.03
2019-04-23T03:30:13.609Z,100315.37
2019-04-23T03:37:40.165Z,100320.18
2019-04-23T03:40:11.622Z,100323.16
2019-04-23T03:43:01.314Z,100329.62
2019-04-23T03:47:37.393Z,100341.63
2019-04-23T03:52:44.367Z,100346.39
2019-04-23T03:55:19.164Z,100348.17
2019-04-23T03:57:43.281Z,100349.25
2019-04-23T04:05:47.299Z,100356.13
2019-04-23T04:08:07.987Z,100348.16
2019-04-23T04:10:35.259Z,100350.20
2019-04-23T04:13:22.276Z,100347.11
2019-04-23T04:18:21.260Z,100358.75
2019-04-23T04:26:00.149Z,100367.58
2019-04-23T04:28:17.666Z,100361.66
2019-04-23T04:30:49.518Z,100361.23
2019-04-23T04:33:41.368Z,100355.16
2019-04-23T04:35:57.951Z,100358.99
2019-04-23T04:41:19.339Z,100377.06
2019-04-23T04:43:54.208Z,100377.75
2019-04-23T04:46:15.296Z,100373.43
2019-04-23T04:53:58.102Z,100382.78
2019-04-23T04:56:18.900Z,100383.95
2019-04-23T04:59:03.602Z,100386.53
2019-04-23T05:01:25.990Z,100395.34
2019-04-23T05:03:32.730Z,100396.79
2019-04-23T05:06:24.682Z,100392.44
2019-04-23T05:16:27.745Z,100377.54
2019-04-23T05:19:25.031Z,100378.27
2019-04-23T05:21:46.679Z,100380.19
2019-04-23T05:26:33.356Z,100383.80
2019-04-23T05:29:11.549Z,100379.83
2019-04-23T05:31:40.411Z,100381.17
2019-04-23T05:36:49.213Z,100384.87
2019-04-23T05:39:24.701Z,100388.08
2019-04-23T05:41:45.573Z,100392.59
2019-04-23T05:44:21.275Z,100396.33
2019-04-23T05:46:52.315Z,100395.79
2019-04-23T05:49:26.192Z,100403.14
2019-04-23T05:51:55.142Z,100403.79
2019-04-23T05:54:26.573Z,100407.28
2019-04-23T05:56:56.914Z,100414.59
2019-04-23T05:59:43.601Z,100405.62
2019-04-23T06:01:57.455Z,100414.09
2019-04-23T06:04:30.673Z,100416.78
2019-04-23T06:07:15.009Z,100420.72
2019-04-23T06:09:37.558Z,100430.26
2019-04-23T06:14:41.054Z,100428.84
2019-04-23T06:17:11.207Z,100437.87
2019-04-23T06:19:33.118Z,100438.19
2019-04-23T06:22:15.199Z,100447.08
2019-04-23T06:24:41.174Z,100442.09
2019-04-23T06:27:13.515Z,100440.59
2019-04-23T06:29:45.060Z,100450.35
2019-04-23T06:32:14.390Z,100450.92
2019-04-23T06:34:50.199Z,100446.28
2019-04-23T06:37:16.950Z,100442.16
2019-04-23T06:39:48.426Z,100447.07
2019-04-23T06:42:21.187Z,100454.25
2019-04-23T06:44:58.440Z,100453.98
2019-04-23T06:47:43.045Z,100455.57
2019-04-23T06:49:55.884Z,100454.00
2019-04-23T06:52:30.116Z,100457.50
2019-04-23T06:55:01.562Z,100452.98
2019-04-23T06:57:26.970Z,100452.88
2019-04-23T07:00:02.434Z,100450.63
2019-04-23T07:02:34.591Z,100454.25
2019-04-23T07:05:14.103Z,100465.38
2019-04-23T07:07:50.007Z,100454.51
2019-04-23T07:10:07.296Z,100463.95
2019-04-23T07:12:44.540Z,100463.73
2019-04-23T07:15:28.005Z,100471.88
2019-04-23T07:17:34.316Z,100470.16
2019-04-23T07:20:16.495Z,100479.72
2019-04-23T07:22:45.646Z,100474.77
2019-04-23T07:25:12.859Z,100474.47
2019-04-23T07:27:41.093Z,100471.69
2019-04-23T07:32:52.942Z,100474.34
2019-04-23T07:35:15.847Z,100484.69
2019-04-23T07:40:31.257Z,100480.33
2019-04-23T07:43:24.982Z,100482.19
2019-04-23T07:46:08.148Z,100488.80
2019-04-23T07:48:20.870Z,100484.36
2019-04-23T07:51:03.331Z,100487.27
2019-04-23T07:53:53.530Z,100484.04
2019-04-23T07:56:11.601Z,100480.33
2019-04-23T07:58:44.743Z,100484.66
2019-04-23T08:01:07.104Z,100480.89
2019-04-23T08:06:05.847Z,100480.00
2019-04-23T08:08:43.918Z,100483.08
2019-04-23T08:11:30.799Z,100479.61
2019-04-23T08:13:55.642Z,100485.69
2019-04-23T08:21:22.718Z,100506.06
2019-04-23T08:27:04.233Z,100500.64
2019-04-23T08:29:42.261Z,100500.50
2019-04-23T08:32:13.932Z,100511.55
2019-04-23T08:34:56.408Z,100519.64
2019-04-23T08:37:26.590Z,100516.31
2019-04-23T08:40:01.896Z,100519.55
2019-04-23T08:48:30.803Z,100497.92
2019-04-23T08:53:31.757Z,100476.12
2019-04-23T08:55:50.131Z,100474.98
2019-04-23T09:03:31.349Z,100482.90
2019-04-23T09:06:14.025Z,100481.86
2019-04-23T09:11:33.160Z,100476.86
2019-04-23T09:13:53.439Z,100464.47
2019-04-23T09:16:17.276Z,100452.02
2019-04-23T09:18:33.607Z,100446.53
2019-04-23T09:21:02.153Z,100448.88
2019-04-23T09:23:39.162Z,100444.55
2019-04-23T09:26:02.297Z,100443.86
2019-04-23T09:28:56.765Z,100449.66
2019-04-23T09:31:31.594Z,100438.36
2019-04-23T09:34:19.328Z,100430.53
2019-04-23T09:37:04.709Z,100431.08
2019-04-23T09:39:43.068Z,100439.53
2019-04-23T09:45:22.878Z,100447.05
2019-04-23T09:48:01.642Z,100446.31
2019-04-23T09:50:38.371Z,100431.98
2019-04-23T09:53:24.022Z,100431.98
2019-04-23T09:58:10.973Z,100431.66
2019-04-23T10:00:40.736Z,100437.31
2019-04-23T10:03:05.040Z,100425.77
2019-04-23T10:05:31.129Z,100425.53
2019-04-23T10:08:01.631Z,100426.19
2019-04-23T10:10:22.802Z,100415.70
2019-04-23T10:12:53.637Z,100405.89
2019-04-23T10:15:28.764Z,100405.38
2019-04-23T10:17:56.308Z,100402.00
2019-04-23T10:20:26.776Z,100394.55
2019-04-23T10:22:57.234Z,100391.05
2019-04-23T10:25:27.893Z,100392.45
2019-04-23T10:28:01.688Z,100380.83
2019-04-23T10:30:28.987Z,100372.45
2019-04-23T10:32:58.427Z,100375.48
2019-04-23T10:35:39.435Z,100375.48
2019-04-23T10:38:04.401Z,100379.80
2019-04-23T10:40:34.798Z,100379.37
2019-04-23T10:43:03.428Z,100372.14
2019-04-23T10:46:21.815Z,100365.17
2019-04-23T10:49:31.697Z,100368.86
2019-04-23T10:52:02.619Z,100356.58
2019-04-23T10:57:11.285Z,100364.86
2019-04-23T10:59:38.823Z,100378.38
2019-04-23T11:02:29.197Z,100371.52
2019-04-23T11:07:28.488Z,100358.89
2019-04-23T11:12:48.967Z,100361.60
2019-04-23T11:15:27.460Z,100368.21
2019-04-23T11:28:02.818Z,100356.98
2019-04-23T11:30:33.759Z,100350.34
2019-04-23T11:38:31.467Z,100354.05
2019-04-23T11:40:34.033Z,100356.31
2019-04-23T11:45:38.871Z,100339.38
2019-04-23T11:51:11.633Z,100329.14
2019-04-23T11:53:10.445Z,100327.70
2019-04-23T11:55:45.787Z,100333.91
2019-04-23T12:01:10.826Z,100322.27
2019-04-23T12:03:37.384Z,100314.85
2019-04-23T12:09:15.983Z,100325.40
2019-04-23T12:11:54.581Z,100318.14
2019-04-23T12:29:46.201Z,100300.80
2019-04-23T12:32:48.054Z,100296.66
2019-04-23T12:35:19.392Z,100300.52
2019-04-23T12:43:12.106Z,100310.22
2019-04-23T12:48:16.327Z,100305.87
2019-04-23T12:53:03.045Z,100292.13
2019-04-23T12:58:03.967Z,100274.72
2019-04-23T13:00:33.926Z,100270.97
2019-04-23T13:03:10.416Z,100271.22
2019-04-23T13:05:33.921Z,100267.72
2019-04-23T13:08:07.993Z,100265.69
2019-04-23T13:13:18.879Z,100258.70
2019-04-23T13:15:40.887Z,100261.69
2019-04-23T13:18:09.448Z,100266.46
2019-04-23T13:20:36.901Z,100266.77
2019-04-23T13:23:19.801Z,100272.56
2019-04-23T13:28:35.177Z,100261.72
2019-04-23T13:31:12.715Z,100269.90
2019-04-23T13:38:40.544Z,100236.73
2019-04-23T13:41:19.174Z,100236.52
2019-04-23T13:46:14.095Z,100228.26
2019-04-23T13:48:42.240Z,100244.01
2019-04-23T13:51:21.951Z,100240.37
2019-04-23T13:58:51.079Z,100227.57
2019-04-23T14:01:30.775Z,100220.86
2019-04-23T14:04:16.179Z,100211.98
2019-04-23T14:06:34.996Z,100216.70
2019-04-23T14:11:26.471Z,100214.30
2019-04-23T14:16:48.367Z,100208.55
2019-04-23T14:19:13.019Z,100212.52
2019-04-23T14:21:37.494Z,100223.35
2019-04-23T14:26:39.979Z,100234.09
2019-04-23T14:29:12.865Z,100233.44
2019-04-23T14:31:43.221Z,100237.34
2019-04-23T14:34:12.825Z,100241.84
2019-04-23T14:36:52.554Z,100242.80
2019-04-23T14:39:24.010Z,100227.55
2019-04-23T14:41:53.308Z,100227.55
2019-04-23T14:44:19.707Z,100224.18
2019-04-23T14:47:14.660Z,100228.84
2019-04-23T14:49:56.651Z,100211.30
2019-04-23T14:52:06.139Z,100178.86
2019-04-23T14:55:17.448Z,100140.76
2019-04-23T14:57:21.280Z,100125.63
2019-04-23T14:59:45.078Z,100115.66
2019-04-23T15:02:19.457Z,100126.72
2019-04-23T15:04:47.250Z,100142.12
2019-04-23T15:07:24.301Z,100155.40
2019-04-23T15:09:57.778Z,100150.08
2019-04-23T15:12:23.100Z,100154.47
2019-04-23T15:15:00.317Z,100159.48
2019-04-23T15:25:25.610Z,100151.59
2019-04-23T15:28:05.193Z,100156.14
2019-04-23T15:29:57.805Z,100160.34
2019-04-23T15:32:54.194Z,100155.02
2019-04-23T15:35:31.359Z,100156.67
2019-04-23T15:38:02.127Z,100157.62
2019-04-23T15:40:15.236Z,100156.10
2019-04-23T15:42:52.031Z,100147.20
2019-04-23T15:45:15.130Z,100146.16
2019-04-23T15:47:48.074Z,100151.26
2019-04-23T15:50:22.744Z,100153.58
2019-04-23T15:55:22.448Z,100142.82
2019-04-23T16:00:22.400Z,100138.87
2019-04-23T16:02:26.756Z,100155.33
2019-04-23T16:04:56.151Z,100166.48
2019-04-23T16:07:45.844Z,100170.78
2019-04-23T16:12:56.687Z,100181.30
2019-04-23T16:15:41.985Z,100183.39
2019-04-23T16:18:25.964Z,100180.98
2019-04-23T16:20:54.630Z,100174.63
2019-04-23T16:23:17.818Z,100174.41
2019-04-23T16:25:43.101Z,100180.98
2019-04-23T16:28:25.320Z,100185.69
2019-04-23T16:30:59.828Z,100184.65
2019-04-23T16:33:16.368Z,100202.91
2019-04-23T16:36:12.638Z,100210.55
2019-04-23T16:41:17.413Z,100217.57
2019-04-23T16:43:49.273Z,100223.92
2019-04-23T16:46:21.485Z,100219.94
2019-04-23T16:48:57.894Z,100216.81
2019-04-23T16:51:25.160Z,100208.16
2019-04-23T16:53:54.233Z,100215.06
2019-04-23T16:56:28.839Z,100203.23
2019-04-23T16:59:00.143Z,100203.91
2019-04-23T17:01:22.916Z,100209.17
2019-04-23T17:04:06.666Z,100219.52
2019-04-23T17:08:59.736Z,100218.08
2019-04-23T17:11:53.098Z,100227.92
2019-04-23T17:14:08.088Z,100226.13
2019-04-23T17:16:34.024Z,100227.63
2019-04-23T17:19:11.534Z,100233.66
2019-04-23T17:21:39.017Z,100239.63
2019-04-23T17:24:20.857Z,100239.59
2019-04-23T17:26:37.363Z,100247.38
2019-04-23T17:29:15.512Z,100253.72
2019-04-23T17:31:38.483Z,100262.37
2019-04-23T17:34:23.774Z,100275.09
2019-04-23T17:37:03.490Z,100268.84
2019-04-23T17:39:47.479Z,100268.42
2019-04-23T17:45:17.114Z,100264.30
2019-04-23T17:47:51.734Z,100255.23
2019-04-23T17:50:26.896Z,100256.15
2019-04-23T17:52:59.173Z,100248.06
2019-04-23T17:55:22.367Z,100251.75
2019-04-23T17:58:01.693Z,100248.47
2019-04-23T18:00:33.578Z,100248.94
2019-04-23T18:05:37.159Z,100246.23
2019-04-23T18:07:59.112Z,100247.65
2019-04-23T18:10:41.508Z,100254.83
2019-04-23T18:15:24.391Z,100250.04
2019-04-23T18:18:13.597Z,100229.05
2019-04-23T18:21:13.908Z,100220.48
2019-04-23T18:23:35.398Z,100218.12
2019-04-23T18:26:14.185Z,100218.84
2019-04-23T18:28:50.188Z,100223.48
2019-04-23T18:31:26.870Z,100225.14
2019-04-23T18:34:13.728Z,100226.56
2019-04-23T18:36:33.645Z,100237.20
2019-04-23T18:39:07.184Z,100228.66
2019-04-23T18:41:35.207Z,100230.88
2019-04-23T18:44:17.228Z,100232.91
2019-04-23T18:46:41.825Z,100248.13
2019-04-23T18:49:11.375Z,100255.63
2019-04-23T18:51:42.211Z,100250.19
2019-04-23T18:54:08.159Z,100230.79
2019-04-23T18:57:00.209Z,100227.75
2019-04-23T18:59:21.231Z,100235.88
2019-04-23T19:02:37.928Z,100243.41
2019-04-23T19:10:26.708Z,100239.22
2019-04-23T19:13:06.973Z,100232.02
2019-04-23T19:15:37.997Z,100232.36
2019-04-23T19:18:04.224Z,100235.48
2019-04-23T19:25:46.709Z,100212.27
2019-04-23T19:31:05.613Z,100207.80
2019-04-23T19:36:14.186Z,100210.99
2019-04-23T19:38:39.524Z,100189.63
2019-04-23T19:41:08.554Z,100190.02
2019-04-23T19:43:51.191Z,100183.28
2019-04-23T19:46:24.899Z,100196.20
2019-04-23T19:49:07.194Z,100183.95
2019-04-23T19:51:17.166Z,100184.95
2019-04-23T19:58:51.763Z,100187.48
2019-04-23T20:01:25.782Z,100190.25
2019-04-23T20:03:54.107Z,100197.33
2019-04-23T20:09:17.051Z,100211.97
2019-04-23T20:11:38.068Z,100209.95
2019-04-23T20:13:57.510Z,100207.10
2019-04-23T20:16:39.996Z,100204.27
2019-04-23T20:18:54.824Z,100194.33
2019-04-23T20:21:38.891Z,100208.62
2019-04-23T20:24:18.552Z,100203.72
2019-04-23T20:26:32.345Z,100202.16
2019-04-23T20:35:06.573Z,100226.91
2019-04-23T20:38:08.921Z,100224.88
2019-04-23T20:40:18.620Z,100232.63
2019-04-23T20:42:46.970Z,100234.64
2019-04-23T20:45:16.259Z,100229.00
2019-04-23T20:47:45.454Z,100219.97
2019-04-23T20:50:13.729Z,100214.75
2019-04-23T20:52:46.650Z,100216.00
2019-04-23T20:55:41.182Z,100229.00
2019-04-23T20:57:58.146Z,100233.66
2019-04-23T21:05:44.645Z,100240.43
2019-04-23T21:08:30.175Z,100262.45
2019-04-23T21:11:01.397Z,100273.50
2019-04-23T21:16:09.000Z,100289.13
2019-04-23T21:18:34.531Z,100288.27
2019-04-23T21:25:54.067Z,100270.42
2019-04-23T21:28:40.064Z,100254.81
2019-04-23T21:31:27.469Z,100228.98
2019-04-23T21:33:50.786Z,100219.61
2019-04-23T21:36:25.624Z,100222.89
2019-04-23T21:44:40.530Z,100257.88
2019-04-23T21:47:04.699Z,100264.89
2019-04-23T21:49:35.843Z,100259.67
2019-04-23T21:52:07.858Z,100256.25
2019-04-23T21:54:32.243Z,100247.45
2019-04-23T21:57:00.572Z,100244.98
2019-04-23T21:59:39.596Z,100244.81
2019-04-23T22:02:09.197Z,100249.34
2019-04-23T22:04:39.872Z,100260.45
2019-04-23T22:07:07.018Z,100260.53
2019-04-23T22:09:46.674Z,100259.53
2019-04-23T22:12:34.159Z,100257.96
2019-04-23T22:14:45.349Z,100251.49
2019-04-23T22:17:15.347Z,100259.41
2019-04-23T22:19:55.249Z,100270.06
2019-04-23T22:22:20.419Z,100272.55
2019-04-23T22:24:48.814Z,100274.33
2019-04-23T22:27:16.758Z,100264.83
2019-04-23T22:29:49.228Z,100256.55
2019-04-23T22:32:30.821Z,100256.31
2019-04-23T22:35:00.407Z,100260.50
2019-04-23T22:37:23.620Z,100276.23
2019-04-23T22:43:04.108Z,100296.77
2019-04-23T22:45:05.297Z,100291.78
2019-04-23T22:47:34.579Z,100297.16
2019-04-23T22:55:07.312Z,100288.02
2019-04-23T22:57:56.000Z,100291.83
2019-04-23T23:03:09.753Z,100305.25
2019-04-23T23:08:13.150Z,100303.17
2019-04-23T23:10:52.190Z,100309.88
2019-04-23T23:13:20.606Z,100298.94
2019-04-23T23:15:53.314Z,100295.97
2019-04-23T23:23:40.782Z,100291.20
2019-04-23T23:25:55.312Z,100292.91
2019-04-23T23:28:31.378Z,100299.97
2019-04-23T23:33:30.218Z,100280.86
2019-04-23T23:36:08.531Z,100268.52
2019-04-23T23:41:15.677Z,100259.24
2019-04-23T23:48:42.094Z,100272.11
2019-04-23T23:51:21.811Z,100282.55
2019-04-23T23:53:51.296Z,100278.20
2019-04-23T23:56:14.136Z,100286.56
2019-04-23T23:58:55.284Z,100287.57
